sensor_id;sensor_type;location;lat;lon;timestamp;pressure;altitude;pressure_sealevel;temperature;humidity
31331;BME280;34067;39.548;-76.088;2023-03-03T00:00:25;100788.87;;;13.40;34.10
31331;BME280;34067;39.548;-76.088;2023-03-03T00:02:56;100788.60;;;13.79;33.93
31331;BME280;34067;39.548;-76.088;2023-03-03T00:05:25;100800.50;;;13.76;34.31
31331;BME280;34067;39.548;-76.088;2023-03-03T00:07:53;100802.60;;;12.85;34.33
31331;BME280;34067;39.548;-76.088;2023-03-03T00:10:22;100806.92;;;13.15;33.98
31331;BME280;34067;39.548;-76.088;2023-03-03T00:12:50;100807.64;;;13.81;32.59
31331;BME280;34067;39.548;-76.088;2023-03-03T00:15:21;100808.42;;;12.95;33.41
31331;BME280;34067;39.548;-76.088;2023-03-03T00:17:49;100813.67;;;13.43;32.36
31331;BME280;34067;39.548;-76.088;2023-03-03T00:20:34;100816.21;;;13.67;34.63
31331;BME280;34067;39.548;-76.088;2023-03-03T00:23:16;100817.74;;;13.68;33.05
31331;BME280;34067;39.548;-76.088;2023-03-03T00:25:50;100816.68;;;13.10;31.98
31331;BME280;34067;39.548;-76.088;2023-03-03T00:28:24;100818.79;;;12.43;32.79
31331;BME280;34067;39.548;-76.088;2023-03-03T00:30:54;100821.05;;;12.45;32.98
31331;BME280;34067;39.548;-76.088;2023-03-03T00:33:27;100827.41;;;11.49;32.10
31331;BME280;34067;39.548;-76.088;2023-03-03T00:35:57;100829.78;;;12.80;36.83
31331;BME280;34067;39.548;-76.088;2023-03-03T00:38:28;100828.57;;;12.22;31.73
31331;BME280;34067;39.548;-76.088;2023-03-03T00:40:56;100820.96;;;13.24;31.82
31331;BME280;34067;39.548;-76.088;2023-03-03T00:43:27;100827.02;;;12.94;31.94
31331;BME280;34067;39.548;-76.088;2023-03-03T00:46:02;100831.81;;;13.24;31.03
31331;BME280;34067;39.548;-76.088;2023-03-03T00:48:38;100833.10;;;13.45;32.60
31331;BME280;34067;39.548;-76.088;2023-03-03T00:51:23;100839.09;;;13.11;31.90
31331;BME280;34067;39.548;-76.088;2023-03-03T00:53:53;100843.90;;;12.83;32.13
31331;BME280;34067;39.548;-76.088;2023-03-03T00:56:23;100839.99;;;12.73;31.70
31331;BME280;34067;39.548;-76.088;2023-03-03T00:58:50;100836.83;;;13.50;32.03
31331;BME280;34067;39.548;-76.088;2023-03-03T01:01:19;100841.37;;;12.81;31.86
31331;BME280;34067;39.548;-76.088;2023-03-03T01:03:48;100856.08;;;12.43;31.67
31331;BME280;34067;39.548;-76.088;2023-03-03T01:06:16;100864.54;;;12.43;31.79
31331;BME280;34067;39.548;-76.088;2023-03-03T01:08:44;100868.01;;;12.54;31.73
31331;BME280;34067;39.548;-76.088;2023-03-03T01:11:16;100865.93;;;12.86;32.06
31331;BME280;34067;39.548;-76.088;2023-03-03T01:13:47;100860.05;;;12.48;31.83
31331;BME280;34067;39.548;-76.088;2023-03-03T01:16:18;100859.23;;;12.22;32.58
31331;BME280;34067;39.548;-76.088;2023-03-03T01:18:46;100864.98;;;12.15;33.26
31331;BME280;34067;39.548;-76.088;2023-03-03T01:21:14;100867.73;;;12.05;34.24
31331;BME280;34067;39.548;-76.088;2023-03-03T01:23:42;100864.17;;;12.24;33.26
31331;BME280;34067;39.548;-76.088;2023-03-03T01:26:10;100863.76;;;12.14;32.77
31331;BME280;34067;39.548;-76.088;2023-03-03T01:28:39;100861.64;;;12.29;32.52
31331;BME280;34067;39.548;-76.088;2023-03-03T01:31:08;100871.25;;;12.32;36.46
31331;BME280;34067;39.548;-76.088;2023-03-03T01:33:36;100878.35;;;10.62;40.98
31331;BME280;34067;39.548;-76.088;2023-03-03T01:36:04;100876.31;;;11.17;39.73
31331;BME280;34067;39.548;-76.088;2023-03-03T01:38:35;100882.36;;;10.95;37.07
31331;BME280;34067;39.548;-76.088;2023-03-03T01:41:04;100901.41;;;10.76;40.30
31331;BME280;34067;39.548;-76.088;2023-03-03T01:43:33;100908.53;;;10.24;44.88
31331;BME280;34067;39.548;-76.088;2023-03-03T01:47:08;100913.97;;;10.52;42.60
31331;BME280;34067;39.548;-76.088;2023-03-03T01:49:39;100924.62;;;10.52;39.99
31331;BME280;34067;39.548;-76.088;2023-03-03T01:52:13;100941.84;;;10.44;39.02
31331;BME280;34067;39.548;-76.088;2023-03-03T01:54:43;100950.99;;;10.49;38.32
31331;BME280;34067;39.548;-76.088;2023-03-03T01:57:14;100948.33;;;11.13;38.06
31331;BME280;34067;39.548;-76.088;2023-03-03T01:59:45;100953.84;;;10.91;37.89
31331;BME280;34067;39.548;-76.088;2023-03-03T02:02:16;100960.24;;;10.95;37.35
31331;BME280;34067;39.548;-76.088;2023-03-03T02:04:44;100960.24;;;10.95;37.67
31331;BME280;34067;39.548;-76.088;2023-03-03T02:07:14;100967.49;;;11.09;38.09
31331;BME280;34067;39.548;-76.088;2023-03-03T02:09:51;100979.73;;;10.67;37.70
31331;BME280;34067;39.548;-76.088;2023-03-03T02:12:25;100986.82;;;10.64;37.94
31331;BME280;34067;39.548;-76.088;2023-03-03T02:14:58;100998.07;;;10.25;42.16
31331;BME280;34067;39.548;-76.088;2023-03-03T02:17:27;101001.32;;;9.83;45.74
31331;BME280;34067;39.548;-76.088;2023-03-03T02:20:02;101004.38;;;9.38;50.30
31331;BME280;34067;39.548;-76.088;2023-03-03T02:22:40;101012.33;;;9.46;45.50
31331;BME280;34067;39.548;-76.088;2023-03-03T02:25:15;101020.55;;;9.40;45.25
31331;BME280;34067;39.548;-76.088;2023-03-03T02:27:47;101024.30;;;9.15;47.36
31331;BME280;34067;39.548;-76.088;2023-03-03T02:30:22;101022.55;;;8.61;50.74
31331;BME280;34067;39.548;-76.088;2023-03-03T02:32:51;101019.20;;;9.38;49.72
31331;BME280;34067;39.548;-76.088;2023-03-03T02:35:29;101015.56;;;9.56;50.34
31331;BME280;34067;39.548;-76.088;2023-03-03T02:38:08;101017.83;;;8.58;51.51
31331;BME280;34067;39.548;-76.088;2023-03-03T02:40:47;101017.71;;;8.36;51.56
31331;BME280;34067;39.548;-76.088;2023-03-03T02:43:19;101024.82;;;8.38;53.49
31331;BME280;34067;39.548;-76.088;2023-03-03T02:45:51;101029.65;;;8.93;52.11
31331;BME280;34067;39.548;-76.088;2023-03-03T02:48:19;101028.07;;;8.63;52.10
31331;BME280;34067;39.548;-76.088;2023-03-03T02:50:47;101024.64;;;8.13;52.62
31331;BME280;34067;39.548;-76.088;2023-03-03T02:53:15;101029.39;;;8.59;53.77
31331;BME280;34067;39.548;-76.088;2023-03-03T02:55:43;101042.60;;;8.00;53.65
31331;BME280;34067;39.548;-76.088;2023-03-03T02:58:11;101033.65;;;7.71;54.34
31331;BME280;34067;39.548;-76.088;2023-03-03T03:00:40;101027.39;;;7.52;56.31
31331;BME280;34067;39.548;-76.088;2023-03-03T03:03:08;101027.18;;;8.52;56.84
31331;BME280;34067;39.548;-76.088;2023-03-03T03:05:36;101039.57;;;6.90;60.22
31331;BME280;34067;39.548;-76.088;2023-03-03T03:08:05;101044.79;;;7.26;62.76
31331;BME280;34067;39.548;-76.088;2023-03-03T03:10:33;101045.13;;;7.80;61.78
31331;BME280;34067;39.548;-76.088;2023-03-03T03:13:02;101057.47;;;7.36;62.22
31331;BME280;34067;39.548;-76.088;2023-03-03T03:15:31;101065.65;;;6.56;68.99
31331;BME280;34067;39.548;-76.088;2023-03-03T03:17:59;101078.53;;;7.19;66.56
31331;BME280;34067;39.548;-76.088;2023-03-03T03:20:28;101071.70;;;6.31;66.72
31331;BME280;34067;39.548;-76.088;2023-03-03T03:22:56;101077.22;;;5.50;73.77
31331;BME280;34067;39.548;-76.088;2023-03-03T03:25:24;101080.60;;;5.86;75.05
31331;BME280;34067;39.548;-76.088;2023-03-03T03:27:53;101077.04;;;5.48;76.63
31331;BME280;34067;39.548;-76.088;2023-03-03T03:30:21;101076.02;;;5.46;78.05
31331;BME280;34067;39.548;-76.088;2023-03-03T03:32:49;101079.51;;;4.62;77.30
31331;BME280;34067;39.548;-76.088;2023-03-03T03:35:17;101081.06;;;6.94;74.29
31331;BME280;34067;39.548;-76.088;2023-03-03T03:37:45;101081.78;;;7.62;71.90
31331;BME280;34067;39.548;-76.088;2023-03-03T03:40:14;101085.44;;;7.44;69.63
31331;BME280;34067;39.548;-76.088;2023-03-03T03:42:43;101098.51;;;6.25;69.10
31331;BME280;34067;39.548;-76.088;2023-03-03T03:45:11;101097.00;;;6.56;70.46
31331;BME280;34067;39.548;-76.088;2023-03-03T03:47:40;101095.67;;;6.29;70.65
31331;BME280;34067;39.548;-76.088;2023-03-03T03:50:09;101096.81;;;6.95;69.83
31331;BME280;34067;39.548;-76.088;2023-03-03T03:52:37;101100.73;;;5.64;69.63
31331;BME280;34067;39.548;-76.088;2023-03-03T03:55:06;101101.24;;;5.83;69.85
31331;BME280;34067;39.548;-76.088;2023-03-03T03:57:34;101105.82;;;5.99;69.15
31331;BME280;34067;39.548;-76.088;2023-03-03T04:00:04;101108.81;;;5.80;71.90
31331;BME280;34067;39.548;-76.088;2023-03-03T04:02:33;101108.82;;;4.96;76.00
31331;BME280;34067;39.548;-76.088;2023-03-03T04:05:02;101103.21;;;5.33;77.45
31331;BME280;34067;39.548;-76.088;2023-03-03T04:07:30;101101.59;;;6.47;71.78
31331;BME280;34067;39.548;-76.088;2023-03-03T04:09:59;101113.66;;;6.25;69.25
31331;BME280;34067;39.548;-76.088;2023-03-03T04:12:27;101122.38;;;7.03;63.71
31331;BME280;34067;39.548;-76.088;2023-03-03T04:14:55;101120.39;;;6.96;63.79
31331;BME280;34067;39.548;-76.088;2023-03-03T04:17:24;101130.15;;;5.64;68.82
31331;BME280;34067;39.548;-76.088;2023-03-03T04:19:52;101132.45;;;5.17;69.05
31331;BME280;34067;39.548;-76.088;2023-03-03T04:22:20;101130.75;;;5.63;65.60
31331;BME280;34067;39.548;-76.088;2023-03-03T04:24:49;101128.95;;;5.40;63.71
31331;BME280;34067;39.548;-76.088;2023-03-03T04:27:16;101132.94;;;5.44;65.75
31331;BME280;34067;39.548;-76.088;2023-03-03T04:29:44;101138.40;;;5.73;64.74
31331;BME280;34067;39.548;-76.088;2023-03-03T04:32:12;101139.27;;;5.08;59.68
31331;BME280;34067;39.548;-76.088;2023-03-03T04:34:40;101140.65;;;5.74;60.62
31331;BME280;34067;39.548;-76.088;2023-03-03T04:37:08;101139.70;;;5.68;53.14
31331;BME280;34067;39.548;-76.088;2023-03-03T04:39:36;101143.72;;;6.39;58.16
31331;BME280;34067;39.548;-76.088;2023-03-03T04:42:04;101151.52;;;5.65;59.88
31331;BME280;34067;39.548;-76.088;2023-03-03T04:44:33;101155.04;;;6.28;57.06
31331;BME280;34067;39.548;-76.088;2023-03-03T04:47:01;101158.39;;;5.97;58.36
31331;BME280;34067;39.548;-76.088;2023-03-03T04:49:29;101174.15;;;6.11;60.30
31331;BME280;34067;39.548;-76.088;2023-03-03T04:51:58;101181.51;;;6.56;60.66
31331;BME280;34067;39.548;-76.088;2023-03-03T04:54:26;101181.83;;;6.19;61.16
31331;BME280;34067;39.548;-76.088;2023-03-03T04:56:54;101170.20;;;6.30;62.62
31331;BME280;34067;39.548;-76.088;2023-03-03T04:59:22;101175.04;;;6.54;56.02
31331;BME280;34067;39.548;-76.088;2023-03-03T05:01:51;101179.47;;;6.66;59.93
31331;BME280;34067;39.548;-76.088;2023-03-03T05:04:20;101188.55;;;7.46;59.10
31331;BME280;34067;39.548;-76.088;2023-03-03T05:06:48;101191.08;;;8.06;57.94
31331;BME280;34067;39.548;-76.088;2023-03-03T05:09:16;101195.54;;;8.24;56.51
31331;BME280;34067;39.548;-76.088;2023-03-03T05:11:45;101200.07;;;6.74;58.86
31331;BME280;34067;39.548;-76.088;2023-03-03T05:14:13;101206.80;;;7.21;59.24
31331;BME280;34067;39.548;-76.088;2023-03-03T05:16:41;101216.82;;;7.11;58.05
31331;BME280;34067;39.548;-76.088;2023-03-03T05:19:08;101224.31;;;7.65;58.29
31331;BME280;34067;39.548;-76.088;2023-03-03T05:21:37;101220.48;;;8.44;53.74
31331;BME280;34067;39.548;-76.088;2023-03-03T05:24:05;101230.35;;;7.71;54.80
31331;BME280;34067;39.548;-76.088;2023-03-03T05:26:33;101227.31;;;8.46;53.31
31331;BME280;34067;39.548;-76.088;2023-03-03T05:29:01;101231.07;;;8.69;52.71
31331;BME280;34067;39.548;-76.088;2023-03-03T05:31:29;101235.26;;;8.81;51.56
31331;BME280;34067;39.548;-76.088;2023-03-03T05:33:57;101236.22;;;8.50;51.51
31331;BME280;34067;39.548;-76.088;2023-03-03T05:36:26;101239.91;;;8.64;52.69
31331;BME280;34067;39.548;-76.088;2023-03-03T05:38:54;101242.84;;;8.97;51.96
31331;BME280;34067;39.548;-76.088;2023-03-03T05:41:22;101246.33;;;8.30;53.08
31331;BME280;34067;39.548;-76.088;2023-03-03T05:43:50;101243.53;;;8.57;53.67
31331;BME280;34067;39.548;-76.088;2023-03-03T05:46:19;101246.03;;;7.60;56.40
31331;BME280;34067;39.548;-76.088;2023-03-03T05:48:47;101246.78;;;6.99;61.20
31331;BME280;34067;39.548;-76.088;2023-03-03T05:51:15;101242.87;;;7.55;62.08
31331;BME280;34067;39.548;-76.088;2023-03-03T05:53:43;101241.00;;;6.86;62.22
31331;BME280;34067;39.548;-76.088;2023-03-03T05:56:11;101246.52;;;7.99;59.96
31331;BME280;34067;39.548;-76.088;2023-03-03T05:58:39;101251.73;;;8.17;58.76
31331;BME280;34067;39.548;-76.088;2023-03-03T06:03:15;101261.27;;;7.98;57.60
31331;BME280;34067;39.548;-76.088;2023-03-03T06:05:43;101269.68;;;8.16;56.67
31331;BME280;34067;39.548;-76.088;2023-03-03T06:08:11;101269.26;;;8.60;56.64
31331;BME280;34067;39.548;-76.088;2023-03-03T06:10:39;101272.91;;;8.78;56.54
31331;BME280;34067;39.548;-76.088;2023-03-03T06:13:08;101268.93;;;8.14;56.44
31331;BME280;34067;39.548;-76.088;2023-03-03T06:15:36;101273.56;;;8.87;56.28
31331;BME280;34067;39.548;-76.088;2023-03-03T06:18:04;101278.12;;;7.32;60.01
31331;BME280;34067;39.548;-76.088;2023-03-03T06:20:32;101280.68;;;7.63;60.16
31331;BME280;34067;39.548;-76.088;2023-03-03T06:23:01;101283.83;;;7.09;63.23
31331;BME280;34067;39.548;-76.088;2023-03-03T06:25:29;101287.10;;;6.89;64.08
31331;BME280;34067;39.548;-76.088;2023-03-03T06:27:57;101297.99;;;7.23;62.51
31331;BME280;34067;39.548;-76.088;2023-03-03T06:30:25;101308.06;;;7.73;62.20
31331;BME280;34067;39.548;-76.088;2023-03-03T06:32:54;101314.84;;;6.12;62.39
31331;BME280;34067;39.548;-76.088;2023-03-03T06:35:22;101312.03;;;7.40;62.04
31331;BME280;34067;39.548;-76.088;2023-03-03T06:37:49;101313.79;;;5.90;65.67
31331;BME280;34067;39.548;-76.088;2023-03-03T06:40:17;101311.84;;;6.05;65.23
31331;BME280;34067;39.548;-76.088;2023-03-03T06:42:46;101314.20;;;5.61;67.59
31331;BME280;34067;39.548;-76.088;2023-03-03T06:45:14;101325.35;;;5.33;68.72
31331;BME280;34067;39.548;-76.088;2023-03-03T06:47:42;101328.79;;;4.15;71.87
31331;BME280;34067;39.548;-76.088;2023-03-03T06:50:11;101326.07;;;4.71;72.70
31331;BME280;34067;39.548;-76.088;2023-03-03T06:52:39;101332.20;;;3.95;74.10
31331;BME280;34067;39.548;-76.088;2023-03-03T06:55:22;101340.75;;;4.51;75.58
31331;BME280;34067;39.548;-76.088;2023-03-03T06:57:50;101343.53;;;5.41;71.60
31331;BME280;34067;39.548;-76.088;2023-03-03T07:00:24;101357.41;;;4.08;76.98
31331;BME280;34067;39.548;-76.088;2023-03-03T07:02:58;101362.97;;;4.52;74.39
31331;BME280;34067;39.548;-76.088;2023-03-03T07:05:27;101362.15;;;5.07;70.16
31331;BME280;34067;39.548;-76.088;2023-03-03T07:07:56;101367.19;;;3.99;75.69
31331;BME280;34067;39.548;-76.088;2023-03-03T07:10:27;101381.76;;;3.58;75.99
31331;BME280;34067;39.548;-76.088;2023-03-03T07:13:01;101378.17;;;3.37;75.27
31331;BME280;34067;39.548;-76.088;2023-03-03T07:15:34;101378.15;;;2.94;77.95
31331;BME280;34067;39.548;-76.088;2023-03-03T07:18:02;101380.78;;;4.26;80.40
31331;BME280;34067;39.548;-76.088;2023-03-03T07:20:39;101386.84;;;4.05;80.36
31331;BME280;34067;39.548;-76.088;2023-03-03T07:23:17;101383.83;;;3.47;77.23
31331;BME280;34067;39.548;-76.088;2023-03-03T07:25:48;101375.57;;;2.90;78.02
31331;BME280;34067;39.548;-76.088;2023-03-03T07:28:22;101372.99;;;2.98;82.03
31331;BME280;34067;39.548;-76.088;2023-03-03T07:30:51;101376.57;;;3.21;78.67
31331;BME280;34067;39.548;-76.088;2023-03-03T07:33:52;101374.69;;;4.43;73.96
31331;BME280;34067;39.548;-76.088;2023-03-03T07:36:27;101376.86;;;4.45;74.21
31331;BME280;34067;39.548;-76.088;2023-03-03T07:38:58;101372.24;;;4.39;67.06
31331;BME280;34067;39.548;-76.088;2023-03-03T07:41:27;101383.89;;;3.88;66.77
31331;BME280;34067;39.548;-76.088;2023-03-03T07:44:01;101379.70;;;6.34;65.14
31331;BME280;34067;39.548;-76.088;2023-03-03T07:46:38;101375.47;;;4.36;63.02
31331;BME280;34067;39.548;-76.088;2023-03-03T07:49:21;101370.73;;;4.92;64.31
31331;BME280;34067;39.548;-76.088;2023-03-03T07:51:53;101382.17;;;3.68;66.95
31331;BME280;34067;39.548;-76.088;2023-03-03T07:54:31;101373.43;;;5.01;65.54
31331;BME280;34067;39.548;-76.088;2023-03-03T07:57:14;101380.91;;;4.23;61.98
31331;BME280;34067;39.548;-76.088;2023-03-03T07:59:48;101388.14;;;5.49;58.54
31331;BME280;34067;39.548;-76.088;2023-03-03T08:02:31;101396.93;;;3.98;58.10
31331;BME280;34067;39.548;-76.088;2023-03-03T08:05:00;101397.40;;;4.72;56.54
31331;BME280;34067;39.548;-76.088;2023-03-03T08:07:30;101400.74;;;4.61;56.06
31331;BME280;34067;39.548;-76.088;2023-03-03T08:09:58;101401.49;;;4.14;62.57
31331;BME280;34067;39.548;-76.088;2023-03-03T08:12:42;101411.11;;;3.43;58.23
31331;BME280;34067;39.548;-76.088;2023-03-03T08:15:17;101423.87;;;4.61;58.70
31331;BME280;34067;39.548;-76.088;2023-03-03T08:17:46;101420.82;;;4.42;58.34
31331;BME280;34067;39.548;-76.088;2023-03-03T08:20:42;101425.09;;;3.92;58.86
31331;BME280;34067;39.548;-76.088;2023-03-03T08:23:11;101429.57;;;4.30;60.19
31331;BME280;34067;39.548;-76.088;2023-03-03T08:25:40;101430.42;;;3.46;60.75
31331;BME280;34067;39.548;-76.088;2023-03-03T08:28:09;101430.75;;;2.65;61.51
31331;BME280;34067;39.548;-76.088;2023-03-03T08:30:38;101440.39;;;3.34;62.06
31331;BME280;34067;39.548;-76.088;2023-03-03T08:33:06;101441.86;;;2.35;62.14
31331;BME280;34067;39.548;-76.088;2023-03-03T08:35:34;101446.43;;;2.74;62.40
31331;BME280;34067;39.548;-76.088;2023-03-03T08:38:02;101449.58;;;2.50;62.17
31331;BME280;34067;39.548;-76.088;2023-03-03T08:40:30;101453.04;;;2.80;62.12
31331;BME280;34067;39.548;-76.088;2023-03-03T08:42:58;101461.56;;;2.75;66.55
31331;BME280;34067;39.548;-76.088;2023-03-03T08:45:27;101456.75;;;2.49;61.78
31331;BME280;34067;39.548;-76.088;2023-03-03T08:47:55;101445.91;;;3.58;62.43
31331;BME280;34067;39.548;-76.088;2023-03-03T08:50:23;101447.10;;;2.64;63.12
31331;BME280;34067;39.548;-76.088;2023-03-03T08:52:52;101458.50;;;1.56;63.09
31331;BME280;34067;39.548;-76.088;2023-03-03T08:55:20;101471.04;;;1.63;63.22
31331;BME280;34067;39.548;-76.088;2023-03-03T08:57:48;101473.87;;;1.48;63.22
31331;BME280;34067;39.548;-76.088;2023-03-03T09:00:18;101479.53;;;2.69;63.12
31331;BME280;34067;39.548;-76.088;2023-03-03T09:02:48;101469.88;;;2.31;61.24
31331;BME280;34067;39.548;-76.088;2023-03-03T09:05:19;101477.64;;;3.32;61.66
31331;BME280;34067;39.548;-76.088;2023-03-03T09:07:47;101488.33;;;1.56;62.88
31331;BME280;34067;39.548;-76.088;2023-03-03T09:10:20;101470.90;;;1.64;64.08
31331;BME280;34067;39.548;-76.088;2023-03-03T09:12:49;101484.20;;;1.54;64.43
31331;BME280;34067;39.548;-76.088;2023-03-03T09:15:23;101485.47;;;1.26;63.72
31331;BME280;34067;39.548;-76.088;2023-03-03T09:17:52;101489.87;;;1.24;64.99
31331;BME280;34067;39.548;-76.088;2023-03-03T09:20:34;101501.51;;;0.85;66.29
31331;BME280;34067;39.548;-76.088;2023-03-03T09:23:36;101499.19;;;1.64;62.50
31331;BME280;34067;39.548;-76.088;2023-03-03T09:26:26;101496.94;;;2.30;62.30
31331;BME280;34067;39.548;-76.088;2023-03-03T09:29:14;101500.83;;;1.45;62.45
31331;BME280;34067;39.548;-76.088;2023-03-03T09:31:45;101508.57;;;2.58;59.33
31331;BME280;34067;39.548;-76.088;2023-03-03T09:34:19;101521.99;;;1.20;61.70
31331;BME280;34067;39.548;-76.088;2023-03-03T09:36:48;101530.44;;;2.71;62.05
31331;BME280;34067;39.548;-76.088;2023-03-03T09:39:18;101528.09;;;2.15;59.85
31331;BME280;34067;39.548;-76.088;2023-03-03T09:42:08;101523.27;;;1.93;60.89
31331;BME280;34067;39.548;-76.088;2023-03-03T09:44:56;101526.54;;;2.70;63.66
31331;BME280;34067;39.548;-76.088;2023-03-03T09:47:39;101525.78;;;1.70;61.26
31331;BME280;34067;39.548;-76.088;2023-03-03T09:50:23;101546.81;;;2.36;61.97
31331;BME280;34067;39.548;-76.088;2023-03-03T09:53:00;101551.91;;;1.29;63.61
31331;BME280;34067;39.548;-76.088;2023-03-03T09:55:39;101556.89;;;1.44;61.71
31331;BME280;34067;39.548;-76.088;2023-03-03T09:58:26;101542.30;;;2.48;59.40
31331;BME280;34067;39.548;-76.088;2023-03-03T10:01:05;101539.90;;;1.96;61.32
31331;BME280;34067;39.548;-76.088;2023-03-03T10:04:08;101536.64;;;2.01;61.43
31331;BME280;34067;39.548;-76.088;2023-03-03T10:06:46;101538.81;;;1.62;61.68
31331;BME280;34067;39.548;-76.088;2023-03-03T10:09:34;101535.08;;;1.50;60.26
31331;BME280;34067;39.548;-76.088;2023-03-03T10:12:11;101537.83;;;0.15;62.55
31331;BME280;34067;39.548;-76.088;2023-03-03T10:14:57;101536.66;;;2.27;60.45
31331;BME280;34067;39.548;-76.088;2023-03-03T10:17:40;101540.53;;;1.02;59.58
31331;BME280;34067;39.548;-76.088;2023-03-03T10:20:29;101541.04;;;1.85;57.09
31331;BME280;34067;39.548;-76.088;2023-03-03T10:23:07;101537.32;;;2.27;60.24
31331;BME280;34067;39.548;-76.088;2023-03-03T10:25:44;101536.98;;;0.98;62.17
31331;BME280;34067;39.548;-76.088;2023-03-03T10:28:39;101530.41;;;1.23;61.56
31331;BME280;34067;39.548;-76.088;2023-03-03T10:31:18;101543.30;;;1.74;62.82
31331;BME280;34067;39.548;-76.088;2023-03-03T10:33:58;101535.91;;;2.22;60.60
31331;BME280;34067;39.548;-76.088;2023-03-03T10:36:40;101532.08;;;1.99;58.04
31331;BME280;34067;39.548;-76.088;2023-03-03T10:39:30;101543.87;;;2.45;59.46
31331;BME280;34067;39.548;-76.088;2023-03-03T10:42:15;101555.63;;;1.39;59.68
31331;BME280;34067;39.548;-76.088;2023-03-03T10:44:55;101544.25;;;2.09;61.43
31331;BME280;34067;39.548;-76.088;2023-03-03T10:47:43;101554.75;;;1.67;58.32
31331;BME280;34067;39.548;-76.088;2023-03-03T10:50:20;101568.10;;;1.55;59.14
31331;BME280;34067;39.548;-76.088;2023-03-03T10:52:57;101563.30;;;2.79;54.75
31331;BME280;34067;39.548;-76.088;2023-03-03T10:55:36;101553.30;;;3.30;54.48
31331;BME280;34067;39.548;-76.088;2023-03-03T10:59:34;101562.01;;;3.29;54.32
31331;BME280;34067;39.548;-76.088;2023-03-03T11:02:12;101559.99;;;3.09;53.32
31331;BME280;34067;39.548;-76.088;2023-03-03T11:05:02;101565.34;;;4.02;51.18
31331;BME280;34067;39.548;-76.088;2023-03-03T11:07:41;101563.72;;;4.53;49.30
31331;BME280;34067;39.548;-76.088;2023-03-03T11:10:38;101560.65;;;4.00;49.41
31331;BME280;34067;39.548;-76.088;2023-03-03T11:13:21;101548.97;;;3.88;51.27
31331;BME280;34067;39.548;-76.088;2023-03-03T11:16:04;101551.35;;;4.27;50.52
31331;BME280;34067;39.548;-76.088;2023-03-03T11:18:48;101558.63;;;4.07;49.83
31331;BME280;34067;39.548;-76.088;2023-03-03T11:21:23;101549.45;;;4.27;49.27
31331;BME280;34067;39.548;-76.088;2023-03-03T11:24:07;101552.88;;;1.21;52.32
31331;BME280;34067;39.548;-76.088;2023-03-03T11:26:55;101553.49;;;2.05;53.41
31331;BME280;34067;39.548;-76.088;2023-03-03T11:29:38;101549.22;;;2.83;55.25
31331;BME280;34067;39.548;-76.088;2023-03-03T11:32:20;101537.52;;;1.75;53.84
31331;BME280;34067;39.548;-76.088;2023-03-03T11:34:59;101522.78;;;1.69;54.66
31331;BME280;34067;39.548;-76.088;2023-03-03T11:37:39;101500.73;;;0.45;57.87
31331;BME280;34067;39.548;-76.088;2023-03-03T11:40:17;101511.02;;;-0.73;61.47
31331;BME280;34067;39.548;-76.088;2023-03-03T11:42:57;101517.18;;;0.60;60.39
31331;BME280;34067;39.548;-76.088;2023-03-03T11:45:34;101514.65;;;0.23;58.77
31331;BME280;34067;39.548;-76.088;2023-03-03T11:48:13;101520.39;;;1.09;58.63
31331;BME280;34067;39.548;-76.088;2023-03-03T11:50:52;101518.95;;;2.21;56.93
31331;BME280;34067;39.548;-76.088;2023-03-03T11:53:42;101523.83;;;1.98;56.31
31331;BME280;34067;39.548;-76.088;2023-03-03T11:56:21;101544.60;;;0.50;56.54
31331;BME280;34067;39.548;-76.088;2023-03-03T11:58:59;101578.60;;;1.63;54.57
31331;BME280;34067;39.548;-76.088;2023-03-03T12:01:34;101582.86;;;2.21;52.54
31331;BME280;34067;39.548;-76.088;2023-03-03T12:04:06;101583.72;;;2.40;54.25
31331;BME280;34067;39.548;-76.088;2023-03-03T12:06:46;101584.19;;;3.16;50.25
31331;BME280;34067;39.548;-76.088;2023-03-03T12:09:32;101589.25;;;2.71;49.43
31331;BME280;34067;39.548;-76.088;2023-03-03T12:12:06;101580.51;;;3.36;49.52
31331;BME280;34067;39.548;-76.088;2023-03-03T12:14:50;101571.26;;;3.87;48.67
31331;BME280;34067;39.548;-76.088;2023-03-03T12:17:37;101584.78;;;3.43;49.27
31331;BME280;34067;39.548;-76.088;2023-03-03T12:20:16;101605.11;;;3.11;50.11
31331;BME280;34067;39.548;-76.088;2023-03-03T12:22:56;101625.34;;;4.19;47.53
31331;BME280;34067;39.548;-76.088;2023-03-03T12:25:33;101643.59;;;4.64;46.34
31331;BME280;34067;39.548;-76.088;2023-03-03T12:28:09;101632.26;;;5.35;46.78
31331;BME280;34067;39.548;-76.088;2023-03-03T12:30:56;101623.33;;;3.49;46.33
31331;BME280;34067;39.548;-76.088;2023-03-03T12:33:36;101620.52;;;3.81;49.14
31331;BME280;34067;39.548;-76.088;2023-03-03T12:36:18;101632.11;;;3.19;50.28
31331;BME280;34067;39.548;-76.088;2023-03-03T12:38:55;101628.30;;;3.37;48.39
31331;BME280;34067;39.548;-76.088;2023-03-03T12:41:34;101640.48;;;4.37;47.94
31331;BME280;34067;39.548;-76.088;2023-03-03T12:44:14;101662.36;;;3.61;48.13
31331;BME280;34067;39.548;-76.088;2023-03-03T12:46:55;101676.76;;;4.89;45.31
31331;BME280;34067;39.548;-76.088;2023-03-03T12:49:33;101672.06;;;4.16;46.68
31331;BME280;34067;39.548;-76.088;2023-03-03T12:52:18;101680.39;;;4.01;47.33
31331;BME280;34067;39.548;-76.088;2023-03-03T12:55:00;101669.23;;;3.89;46.45
31331;BME280;34067;39.548;-76.088;2023-03-03T12:57:37;101658.85;;;3.15;48.59
31331;BME280;34067;39.548;-76.088;2023-03-03T13:00:48;101700.60;;;3.72;48.36
31331;BME280;34067;39.548;-76.088;2023-03-03T13:03:34;101733.79;;;3.61;47.01
31331;BME280;34067;39.548;-76.088;2023-03-03T13:06:11;101709.77;;;2.27;49.03
31331;BME280;34067;39.548;-76.088;2023-03-03T13:08:56;101709.44;;;2.59;49.02
31331;BME280;34067;39.548;-76.088;2023-03-03T13:11:41;101722.23;;;3.57;49.49
31331;BME280;34067;39.548;-76.088;2023-03-03T13:14:21;101722.55;;;3.52;49.62